createdAt,value
2023-01-10T00:00:09.012Z,90.90
2023-01-10T00:02:35.463Z,90.90
2023-01-10T00:05:02.935Z,90.90
2023-01-10T00:07:29.339Z,91.00
2023-01-10T00:09:55.734Z,90.90
2023-01-10T00:12:22.105Z,90.90
2023-01-10T00:14:48.472Z,90.90
2023-01-10T00:17:14.848Z,90.90
2023-01-10T00:19:41.293Z,90.90
2023-01-10T00:22:07.663Z,90.90
2023-01-10T00:24:34.075Z,90.90
2023-01-10T00:27:00.509Z,90.90
2023-01-10T00:29:26.944Z,90.90
2023-01-10T00:31:53.316Z,90.90
2023-01-10T00:34:19.729Z,90.90
2023-01-10T00:36:46.193Z,90.90
2023-01-10T00:39:12.572Z,90.90
2023-01-10T00:41:38.950Z,90.80
2023-01-10T00:44:05.390Z,90.80
2023-01-10T00:46:31.879Z,90.80
2023-01-10T00:48:58.304Z,90.80
2023-01-10T00:51:24.723Z,90.80
2023-01-10T00:53:51.103Z,90.80
2023-01-10T00:56:17.523Z,90.80
2023-01-10T00:58:43.945Z,90.80
2023-01-10T01:01:10.408Z,90.70
2023-01-10T01:03:36.788Z,90.70
2023-01-10T01:06:03.169Z,90.70
2023-01-10T01:08:29.556Z,90.80
2023-01-10T01:10:55.968Z,90.80
2023-01-10T01:13:22.391Z,90.70
2023-01-10T01:15:48.808Z,90.70
2023-01-10T01:18:15.273Z,91.00
2023-01-10T01:20:41.712Z,90.70
2023-01-10T01:23:08.089Z,90.60
2023-01-10T01:25:34.458Z,90.70
2023-01-10T01:28:00.831Z,90.70
2023-01-10T01:30:27.202Z,90.70
2023-01-10T01:32:53.627Z,90.60
2023-01-10T01:35:20.220Z,90.70
2023-01-10T01:37:46.609Z,90.70
2023-01-10T01:40:13.041Z,90.70
2023-01-10T01:42:39.508Z,90.70
2023-01-10T01:45:06.056Z,90.70
2023-01-10T01:47:32.441Z,90.70
2023-01-10T01:49:58.822Z,90.70
2023-01-10T01:52:25.198Z,90.70
2023-01-10T01:54:51.590Z,90.70
2023-01-10T01:57:17.957Z,90.70
2023-01-10T01:59:44.403Z,90.70
2023-01-10T02:02:10.854Z,90.70
2023-01-10T02:04:37.260Z,90.70
2023-01-10T02:07:03.699Z,90.70
2023-01-10T02:09:30.136Z,90.70
2023-01-10T02:11:56.589Z,90.70
2023-01-10T02:14:22.975Z,90.70
2023-01-10T02:16:49.341Z,90.70
2023-01-10T02:19:15.765Z,90.60
2023-01-10T02:21:42.167Z,90.60
2023-01-10T02:24:08.604Z,90.70
2023-01-10T02:26:35.049Z,90.60
2023-01-10T02:29:01.441Z,90.70
2023-01-10T02:31:27.949Z,90.70
2023-01-10T02:33:54.346Z,90.60
2023-01-10T02:36:20.728Z,90.60
2023-01-10T02:38:47.097Z,90.60
2023-01-10T02:41:13.462Z,90.60
2023-01-10T02:43:39.827Z,90.60
2023-01-10T02:46:06.243Z,90.60
2023-01-10T02:48:32.686Z,90.60
2023-01-10T02:50:59.123Z,90.60
2023-01-10T02:53:25.568Z,90.60
2023-01-10T02:55:52.009Z,90.60
2023-01-10T02:58:18.395Z,90.60
2023-01-10T03:00:44.784Z,90.60
2023-01-10T03:03:11.156Z,90.90
2023-01-10T03:05:37.566Z,90.60
2023-01-10T03:08:03.993Z,90.70
2023-01-10T03:10:30.400Z,90.70
2023-01-10T03:12:56.768Z,90.70
2023-01-10T03:15:23.205Z,90.70
2023-01-10T03:17:49.649Z,90.70
2023-01-10T03:20:16.487Z,90.70
2023-01-10T03:22:42.933Z,91.00
2023-01-10T03:25:09.395Z,90.70
2023-01-10T03:27:35.765Z,90.70
2023-01-10T03:30:02.156Z,90.70
2023-01-10T03:32:28.525Z,90.70
2023-01-10T03:34:54.914Z,90.70
2023-01-10T03:37:21.285Z,90.70
2023-01-10T03:39:47.712Z,90.70
2023-01-10T03:42:14.088Z,90.80
2023-01-10T03:44:40.458Z,90.80
2023-01-10T03:47:06.851Z,90.80
2023-01-10T03:49:33.236Z,90.80
2023-01-10T03:51:59.604Z,90.80
2023-01-10T03:54:26.055Z,90.80
2023-01-10T03:56:52.508Z,90.80
2023-01-10T03:59:18.892Z,90.80
2023-01-10T04:01:45.508Z,90.80
2023-01-10T04:04:12.018Z,90.80
2023-01-10T04:06:38.494Z,90.80
2023-01-10T04:09:04.950Z,90.90
2023-01-10T04:11:31.333Z,90.90
2023-01-10T04:13:57.724Z,90.80
2023-01-10T04:16:24.220Z,90.80
2023-01-10T04:18:50.685Z,90.80
2023-01-10T04:21:17.113Z,90.80
2023-01-10T04:23:43.496Z,90.80
2023-01-10T04:26:09.927Z,90.90
2023-01-10T04:28:36.388Z,90.90
2023-01-10T04:31:02.821Z,90.90
2023-01-10T04:33:29.220Z,90.90
2023-01-10T04:35:55.615Z,90.90
2023-01-10T04:38:21.977Z,90.90
2023-01-10T04:40:48.400Z,90.90
2023-01-10T04:43:14.786Z,90.90
2023-01-10T04:45:41.252Z,90.90
2023-01-10T04:48:07.641Z,90.90
2023-01-10T04:50:34.016Z,90.90
2023-01-10T04:53:00.433Z,90.90
2023-01-10T04:55:26.881Z,90.90
2023-01-10T04:57:53.312Z,90.90
2023-01-10T05:00:19.695Z,90.90
2023-01-10T05:02:46.211Z,90.90
2023-01-10T05:05:12.685Z,90.90
2023-01-10T05:07:39.058Z,90.90
2023-01-10T05:10:05.470Z,90.90
2023-01-10T05:12:31.853Z,90.90
2023-01-10T05:14:58.276Z,91.00
2023-01-10T05:17:24.710Z,91.00
2023-01-10T05:19:51.106Z,91.00
2023-01-10T05:22:17.526Z,91.00
2023-01-10T05:24:43.908Z,90.90
2023-01-10T05:27:10.344Z,90.90
2023-01-10T05:29:36.777Z,90.90
2023-01-10T05:32:03.229Z,90.90
2023-01-10T05:34:29.664Z,90.90
2023-01-10T05:36:56.135Z,90.90
2023-01-10T05:39:22.536Z,90.90
2023-01-10T05:41:48.896Z,90.90
2023-01-10T05:44:15.316Z,90.90
2023-01-10T05:46:41.701Z,90.90
2023-01-10T05:49:08.074Z,90.90
2023-01-10T05:51:34.501Z,90.90
2023-01-10T05:54:00.932Z,90.90
2023-01-10T05:56:27.381Z,90.90
2023-01-10T05:59:04.374Z,90.90
2023-01-10T06:01:31.918Z,90.90
2023-01-10T06:03:58.282Z,90.90
2023-01-10T06:06:24.656Z,90.90
2023-01-10T06:08:51.035Z,91.00
2023-01-10T06:11:17.473Z,91.00
2023-01-10T06:13:43.850Z,91.00
2023-01-10T06:16:10.307Z,91.00
2023-01-10T06:18:36.707Z,91.10
2023-01-10T06:21:03.104Z,91.10
2023-01-10T06:23:29.481Z,91.10
2023-01-10T06:25:55.864Z,91.10
2023-01-10T06:28:22.375Z,91.10
2023-01-10T06:30:48.812Z,91.10
2023-01-10T06:33:15.254Z,91.10
2023-01-10T06:35:41.708Z,91.10
2023-01-10T06:38:08.099Z,91.10
2023-01-10T06:40:34.536Z,91.00
2023-01-10T06:43:00.989Z,91.00
2023-01-10T06:45:27.466Z,91.00
2023-01-10T06:47:53.886Z,91.00
2023-01-10T06:50:20.319Z,90.90
2023-01-10T06:52:46.747Z,91.00
2023-01-10T06:55:13.176Z,91.00
2023-01-10T06:57:39.642Z,91.00
2023-01-10T07:00:06.042Z,91.00
2023-01-10T07:02:32.416Z,91.00
2023-01-10T07:04:58.850Z,91.00
2023-01-10T07:07:25.240Z,91.00
2023-01-10T07:09:51.609Z,91.10
2023-01-10T07:12:18.046Z,91.10
2023-01-10T07:14:44.505Z,91.10
2023-01-10T07:17:10.878Z,91.10
2023-01-10T07:19:37.269Z,91.10
2023-01-10T07:22:03.637Z,91.10
2023-01-10T07:24:30.087Z,91.10
2023-01-10T07:26:56.490Z,91.10
2023-01-10T07:29:22.917Z,91.10
2023-01-10T07:31:49.355Z,91.20
2023-01-10T07:34:15.805Z,91.20
2023-01-10T07:36:42.252Z,91.20
2023-01-10T07:39:08.647Z,91.20
2023-01-10T07:41:35.060Z,91.10
2023-01-10T07:44:01.450Z,91.10
2023-01-10T07:46:27.904Z,91.10
2023-01-10T07:48:54.318Z,91.10
2023-01-10T07:51:20.707Z,91.00
2023-01-10T07:53:47.068Z,91.00
2023-01-10T07:56:13.488Z,91.00
2023-01-10T07:58:39.907Z,91.00
2023-01-10T08:01:06.395Z,91.00
2023-01-10T08:03:32.983Z,91.00
2023-01-10T08:05:59.440Z,91.00
2023-01-10T08:08:25.830Z,91.00
2023-01-10T08:10:52.297Z,91.00
2023-01-10T08:13:19.401Z,91.00
2023-01-10T08:15:45.964Z,91.00
2023-01-10T08:18:12.389Z,91.00
2023-01-10T08:20:38.778Z,91.00
2023-01-10T08:23:05.217Z,91.00
2023-01-10T08:25:31.648Z,91.00
2023-01-10T08:27:58.024Z,91.00
2023-01-10T08:30:24.463Z,91.00
2023-01-10T08:32:50.883Z,91.00
2023-01-10T08:35:17.313Z,90.90
2023-01-10T08:37:43.741Z,90.90
2023-01-10T08:40:10.114Z,90.90
2023-01-10T08:42:36.533Z,90.90
2023-01-10T08:45:02.973Z,90.90
2023-01-10T08:47:29.548Z,90.90
2023-01-10T08:49:55.929Z,90.80
2023-01-10T08:52:22.317Z,90.80
2023-01-10T08:54:48.758Z,90.80
2023-01-10T08:57:15.208Z,90.80
2023-01-10T08:59:41.589Z,90.80
2023-01-10T09:02:08.074Z,90.80
2023-01-10T09:04:34.536Z,90.80
2023-01-10T09:07:00.925Z,90.80
2023-01-10T09:09:27.356Z,90.80
2023-01-10T09:11:53.794Z,90.80
2023-01-10T09:14:20.219Z,90.80
2023-01-10T09:16:46.672Z,90.70
2023-01-10T09:19:13.082Z,90.70
2023-01-10T09:21:39.516Z,90.70
2023-01-10T09:24:05.913Z,90.70
2023-01-10T09:26:32.336Z,90.60
2023-01-10T09:28:58.832Z,90.70
2023-01-10T09:31:25.258Z,90.70
2023-01-10T09:33:51.712Z,90.60
2023-01-10T09:36:18.091Z,90.60
2023-01-10T09:38:44.477Z,90.60
2023-01-10T09:41:10.869Z,90.50
2023-01-10T09:43:37.250Z,90.50
2023-01-10T09:46:03.623Z,90.50
2023-01-10T09:48:30.342Z,90.50
2023-01-10T09:50:56.784Z,90.40
2023-01-10T09:53:23.155Z,90.40
2023-01-10T09:55:49.551Z,90.40
2023-01-10T09:58:15.922Z,90.30
2023-01-10T10:00:42.305Z,90.30
2023-01-10T10:03:08.769Z,90.30
2023-01-10T10:05:35.231Z,90.30
2023-01-10T10:08:01.644Z,90.30
2023-01-10T10:10:28.065Z,90.20
2023-01-10T10:12:54.436Z,90.20
2023-01-10T10:15:20.805Z,90.20
2023-01-10T10:17:47.228Z,90.20
2023-01-10T10:20:13.692Z,90.10
2023-01-10T10:22:40.089Z,90.20
2023-01-10T10:25:06.521Z,90.10
2023-01-10T10:27:32.966Z,90.10
2023-01-10T10:29:59.425Z,90.10
2023-01-10T10:32:25.822Z,90.00
2023-01-10T10:34:52.220Z,90.00
2023-01-10T10:37:18.631Z,90.00
2023-01-10T10:39:45.065Z,90.00
2023-01-10T10:42:11.499Z,90.00
2023-01-10T10:44:37.958Z,90.00
2023-01-10T10:47:04.412Z,89.90
2023-01-10T10:49:30.791Z,89.90
2023-01-10T10:51:57.257Z,89.70
2023-01-10T10:54:23.653Z,89.70
2023-01-10T10:56:50.100Z,89.60
2023-01-10T10:59:16.547Z,90.10
2023-01-10T11:01:43.008Z,89.50
2023-01-10T11:04:09.408Z,89.60
2023-01-10T11:06:35.838Z,89.60
2023-01-10T11:09:02.273Z,89.40
2023-01-10T11:11:28.713Z,89.40
2023-01-10T11:13:55.076Z,89.40
2023-01-10T11:16:21.533Z,89.30
2023-01-10T11:18:48.000Z,89.20
2023-01-10T11:21:14.373Z,89.10
2023-01-10T11:23:40.817Z,89.10
2023-01-10T11:26:07.272Z,89.00
2023-01-10T11:28:33.708Z,89.00
2023-01-10T11:31:00.133Z,89.00
2023-01-10T11:33:26.510Z,89.00
2023-01-10T11:35:52.885Z,88.90
2023-01-10T11:38:19.318Z,88.90
2023-01-10T11:40:45.747Z,88.90
2023-01-10T11:43:12.135Z,89.40
2023-01-10T11:45:38.651Z,88.80
2023-01-10T11:48:05.075Z,88.70
2023-01-10T11:50:31.451Z,88.60
2023-01-10T11:52:57.822Z,88.50
2023-01-10T11:55:24.194Z,88.40
2023-01-10T11:57:50.625Z,88.40
2023-01-10T12:00:17.059Z,88.30
2023-01-10T12:02:43.448Z,88.40
2023-01-10T12:05:09.953Z,88.40
2023-01-10T12:07:36.426Z,88.30
2023-01-10T12:10:02.861Z,88.20
2023-01-10T12:12:29.316Z,88.30
2023-01-10T12:14:55.710Z,88.30
2023-01-10T12:17:22.138Z,88.20
2023-01-10T12:19:48.532Z,88.20
2023-01-10T12:22:14.963Z,88.20
2023-01-10T12:24:41.378Z,88.20
2023-01-10T12:27:07.773Z,88.20
2023-01-10T12:29:34.194Z,88.20
2023-01-10T12:32:00.592Z,88.20
2023-01-10T12:34:26.984Z,88.20
2023-01-10T12:36:53.370Z,88.20
2023-01-10T12:39:19.789Z,88.20
2023-01-10T12:41:46.237Z,88.20
2023-01-10T12:44:12.678Z,88.20
2023-01-10T12:47:05.075Z,88.10
2023-01-10T12:49:25.512Z,88.10
2023-01-10T12:51:51.931Z,88.10
2023-01-10T12:54:18.369Z,88.10
2023-01-10T12:56:44.757Z,88.10
2023-01-10T12:59:11.155Z,88.00
2023-01-10T13:01:37.672Z,88.00
2023-01-10T13:04:04.166Z,87.90
2023-01-10T13:06:30.595Z,88.00
2023-01-10T13:08:57.053Z,87.90
2023-01-10T13:11:23.447Z,87.90
2023-01-10T13:13:52.102Z,87.90
2023-01-10T13:16:18.792Z,87.80
2023-01-10T13:18:45.369Z,87.80
2023-01-10T13:21:11.854Z,87.80
2023-01-10T13:23:38.243Z,87.80
2023-01-10T13:26:04.625Z,87.80
2023-01-10T13:28:31.067Z,87.80
2023-01-10T13:30:57.501Z,87.80
2023-01-10T13:33:23.963Z,87.80
2023-01-10T13:35:50.347Z,87.80
2023-01-10T13:38:16.757Z,87.70
2023-01-10T13:40:43.196Z,87.70
2023-01-10T13:43:09.590Z,87.80
2023-01-10T13:45:36.023Z,87.80
2023-01-10T13:48:02.413Z,87.80
2023-01-10T13:50:28.848Z,87.80
2023-01-10T13:52:55.228Z,87.80
2023-01-10T13:55:21.650Z,87.60
2023-01-10T13:57:48.076Z,87.60
2023-01-10T14:00:14.460Z,87.70
2023-01-10T14:02:40.840Z,87.70
2023-01-10T14:05:07.211Z,87.60
2023-01-10T14:07:33.590Z,87.70
2023-01-10T14:10:00.022Z,87.60
2023-01-10T14:12:26.459Z,87.60
2023-01-10T14:14:52.897Z,87.50
2023-01-10T14:17:19.348Z,87.50
2023-01-10T14:19:45.796Z,87.60
2023-01-10T14:22:12.237Z,87.50
2023-01-10T14:24:38.634Z,87.50
2023-01-10T14:27:05.020Z,87.50
2023-01-10T14:29:31.397Z,87.50
2023-01-10T14:31:57.775Z,87.50
2023-01-10T14:34:24.231Z,87.50
2023-01-10T14:36:50.618Z,87.50
2023-01-10T14:39:16.984Z,87.50
2023-01-10T14:41:43.364Z,87.50
2023-01-10T14:44:11.847Z,87.40
2023-01-10T14:46:38.632Z,87.40
2023-01-10T14:49:05.037Z,87.30
2023-01-10T14:51:31.485Z,87.30
2023-01-10T14:53:57.938Z,87.30
2023-01-10T14:56:24.402Z,87.20
2023-01-10T14:58:50.788Z,87.20
2023-01-10T15:01:17.273Z,87.20
2023-01-10T15:03:43.715Z,87.00
2023-01-10T15:06:10.092Z,87.00
2023-01-10T15:08:36.486Z,87.00
2023-01-10T15:11:02.869Z,86.90
2023-01-10T15:13:29.261Z,86.80
2023-01-10T15:15:55.678Z,86.80
2023-01-10T15:18:22.129Z,86.70
2023-01-10T15:20:48.578Z,86.70
2023-01-10T15:23:14.977Z,86.60
2023-01-10T15:25:41.358Z,86.50
2023-01-10T15:28:07.727Z,86.50
2023-01-10T15:30:34.153Z,86.50
2023-01-10T15:33:00.533Z,86.40
2023-01-10T15:35:35.241Z,86.40
2023-01-10T15:38:02.387Z,86.40
2023-01-10T15:40:28.837Z,86.40
2023-01-10T15:42:55.239Z,86.50
2023-01-10T15:45:21.669Z,86.40
2023-01-10T15:47:48.109Z,86.30
2023-01-10T15:50:14.522Z,86.40
2023-01-10T15:52:40.969Z,86.40
2023-01-10T15:55:07.454Z,86.40
2023-01-10T15:57:33.896Z,86.40
2023-01-10T16:00:00.382Z,86.50
2023-01-10T16:02:27.247Z,86.60
2023-01-10T16:04:53.842Z,86.80
2023-01-10T16:09:45.610Z,87.20
2023-01-10T16:12:12.029Z,87.40
2023-01-10T16:14:38.420Z,87.60
2023-01-10T16:17:04.889Z,87.70
2023-01-10T16:19:32.059Z,87.90
2023-01-10T16:21:58.472Z,88.10
2023-01-10T16:24:24.844Z,88.40
2023-01-10T16:26:51.283Z,88.60
2023-01-10T16:29:17.672Z,88.60
2023-01-10T16:31:44.135Z,88.80
2023-01-10T16:34:10.528Z,89.00
2023-01-10T16:36:36.896Z,89.10
2023-01-10T16:39:03.335Z,89.30
2023-01-10T16:41:29.745Z,89.40
2023-01-10T16:43:56.124Z,89.50
2023-01-10T16:46:22.510Z,89.60
2023-01-10T16:48:48.885Z,89.70
2023-01-10T16:51:15.256Z,89.70
2023-01-10T16:53:41.713Z,89.80
2023-01-10T16:56:08.075Z,90.00
2023-01-10T16:58:34.457Z,90.00
2023-01-10T17:01:00.917Z,90.10
2023-01-10T17:03:27.355Z,90.10
2023-01-10T17:05:53.765Z,90.10
2023-01-10T17:08:20.160Z,90.20
2023-01-10T17:10:46.527Z,90.20
2023-01-10T17:13:12.951Z,90.30
2023-01-10T17:15:39.385Z,90.30
2023-01-10T17:18:05.946Z,90.30
2023-01-10T17:20:32.460Z,90.40
2023-01-10T17:22:58.875Z,90.40
2023-01-10T17:25:25.320Z,90.50
2023-01-10T17:27:51.778Z,90.50
2023-01-10T17:30:18.193Z,90.50
2023-01-10T17:32:44.622Z,90.60
2023-01-10T17:35:11.095Z,90.60
2023-01-10T17:37:37.495Z,90.60
2023-01-10T17:40:03.887Z,90.70
2023-01-10T17:42:30.869Z,90.70
2023-01-10T17:44:57.319Z,90.70
2023-01-10T17:47:23.734Z,90.80
2023-01-10T17:49:50.166Z,90.80
2023-01-10T17:52:16.557Z,90.80
2023-01-10T17:54:42.927Z,90.80
2023-01-10T17:57:09.588Z,91.20
2023-01-10T17:59:35.985Z,90.90
2023-01-10T18:02:02.594Z,91.00
2023-01-10T18:04:29.091Z,91.00
2023-01-10T18:06:55.484Z,91.00
2023-01-10T18:09:21.887Z,91.10
2023-01-10T18:11:48.262Z,91.10
2023-01-10T18:14:14.642Z,91.10
2023-01-10T18:16:41.120Z,91.10
2023-01-10T18:19:07.584Z,91.10
2023-01-10T18:21:33.975Z,91.10
2023-01-10T18:24:00.600Z,91.10
2023-01-10T18:26:26.982Z,91.10
2023-01-10T18:28:53.402Z,91.20
2023-01-10T18:31:19.897Z,91.20
2023-01-10T18:33:46.690Z,91.20
2023-01-10T18:36:13.107Z,91.20
2023-01-10T18:38:39.528Z,91.30
2023-01-10T18:41:05.932Z,91.30
2023-01-10T18:43:32.301Z,91.30
2023-01-10T18:45:58.714Z,91.30
2023-01-10T18:48:25.925Z,91.30
2023-01-10T18:50:52.489Z,91.30
2023-01-10T18:53:18.937Z,91.30
2023-01-10T18:55:45.376Z,91.40
2023-01-10T18:58:11.753Z,91.40
2023-01-10T19:00:38.142Z,91.40
2023-01-10T19:03:04.571Z,91.40
2023-01-10T19:05:31.024Z,91.40
2023-01-10T19:07:57.474Z,91.40
2023-01-10T19:10:23.923Z,91.50
2023-01-10T19:12:50.304Z,91.40
2023-01-10T19:15:16.700Z,91.50
2023-01-10T19:17:43.075Z,91.50
2023-01-10T19:20:09.504Z,91.50
2023-01-10T19:22:35.893Z,91.50
2023-01-10T19:25:02.349Z,91.60
2023-01-10T19:27:28.792Z,91.60
2023-01-10T19:29:55.263Z,91.60
2023-01-10T19:32:21.712Z,91.60
2023-01-10T19:34:48.099Z,91.60
2023-01-10T19:37:14.542Z,91.70
2023-01-10T19:39:41.008Z,91.70
2023-01-10T19:42:07.413Z,91.70
2023-01-10T19:44:33.780Z,91.80
2023-01-10T19:47:00.333Z,92.00
2023-01-10T19:49:26.782Z,91.80
2023-01-10T19:51:53.226Z,91.80
2023-01-10T19:54:19.687Z,91.80
2023-01-10T19:56:46.082Z,91.80
2023-01-10T19:59:12.504Z,91.80
2023-01-10T20:01:38.980Z,91.80
2023-01-10T20:04:05.422Z,91.80
2023-01-10T20:06:31.901Z,91.80
2023-01-10T20:08:58.321Z,91.80
2023-01-10T20:11:24.765Z,91.90
2023-01-10T20:13:51.151Z,91.80
2023-01-10T20:16:17.610Z,91.80
2023-01-10T20:18:44.090Z,91.80
2023-01-10T20:21:10.554Z,91.80
2023-01-10T20:23:36.997Z,91.80
2023-01-10T20:26:03.394Z,91.80
2023-01-10T20:28:29.753Z,91.80
2023-01-10T20:30:56.165Z,91.80
2023-01-10T20:33:22.569Z,91.80
2023-01-10T20:35:49.033Z,91.80
2023-01-10T20:38:15.430Z,91.80
2023-01-10T20:40:41.811Z,91.80
2023-01-10T20:43:08.253Z,91.80
2023-01-10T20:45:34.665Z,91.80
2023-01-10T20:48:01.105Z,91.80
2023-01-10T20:50:27.517Z,91.80
2023-01-10T20:52:53.938Z,91.80
2023-01-10T20:55:20.316Z,91.80
2023-01-10T20:57:46.775Z,91.80
2023-01-10T21:00:13.174Z,91.80
2023-01-10T21:02:39.659Z,91.80
2023-01-10T21:05:06.060Z,91.80
2023-01-10T21:07:32.459Z,91.80
2023-01-10T21:09:58.913Z,91.80
2023-01-10T21:12:27.498Z,91.80
2023-01-10T21:14:54.038Z,91.90
2023-01-10T21:17:20.457Z,91.90
2023-01-10T21:19:46.894Z,91.80
2023-01-10T21:22:13.342Z,91.90
2023-01-10T21:24:39.785Z,91.80
2023-01-10T21:27:06.225Z,91.90
2023-01-10T21:29:32.614Z,91.90
2023-01-10T21:31:59.051Z,91.90
2023-01-10T21:34:25.493Z,91.80
2023-01-10T21:36:51.903Z,91.90
2023-01-10T21:39:18.347Z,91.80
2023-01-10T21:41:44.749Z,91.80
2023-01-10T21:44:11.163Z,91.80
2023-01-10T21:46:37.585Z,91.80
2023-01-10T21:49:04.048Z,91.80
2023-01-10T21:51:30.445Z,91.80
2023-01-10T21:53:56.824Z,91.80
2023-01-10T21:56:23.265Z,91.80
2023-01-10T21:58:49.697Z,91.80
2023-01-10T22:01:16.220Z,91.80
2023-01-10T22:03:42.783Z,91.80
2023-01-10T22:06:09.301Z,91.80
2023-01-10T22:08:35.728Z,91.80
2023-01-10T22:11:02.166Z,91.90
2023-01-10T22:13:28.584Z,91.90
2023-01-10T22:15:55.028Z,92.00
2023-01-10T22:18:21.489Z,92.00
2023-01-10T22:20:47.862Z,92.00
2023-01-10T22:23:14.234Z,92.10
2023-01-10T22:25:40.600Z,92.10
2023-01-10T22:28:07.036Z,92.10
2023-01-10T22:30:33.472Z,92.10
2023-01-10T22:32:59.862Z,92.10
2023-01-10T22:35:26.261Z,92.10
2023-01-10T22:37:52.657Z,92.10
2023-01-10T22:40:19.085Z,92.10
2023-01-10T22:42:45.517Z,92.40
2023-01-10T22:45:11.903Z,92.20
2023-01-10T22:47:38.353Z,92.20
2023-01-10T22:50:04.810Z,92.20
2023-01-10T22:52:31.194Z,92.20
2023-01-10T22:54:57.630Z,92.20
2023-01-10T22:57:24.044Z,92.20
2023-01-10T22:59:50.432Z,92.30
2023-01-10T23:02:16.863Z,92.30
2023-01-10T23:04:43.301Z,92.40
2023-01-10T23:07:09.680Z,92.40
2023-01-10T23:09:36.069Z,92.40
2023-01-10T23:12:02.441Z,92.50
2023-01-10T23:14:28.823Z,92.50
2023-01-10T23:16:55.247Z,92.50
2023-01-10T23:19:21.654Z,92.40
2023-01-10T23:21:48.023Z,92.50
2023-01-10T23:24:14.427Z,92.50
2023-01-10T23:26:40.806Z,92.50
2023-01-10T23:29:07.180Z,92.50
2023-01-10T23:31:33.580Z,92.50
2023-01-10T23:33:59.973Z,92.60
2023-01-10T23:36:26.343Z,92.60
2023-01-10T23:38:52.720Z,92.60
2023-01-10T23:41:19.107Z,92.70
2023-01-10T23:43:45.506Z,92.70
2023-01-10T23:46:11.951Z,92.70
2023-01-10T23:48:38.407Z,92.70
2023-01-10T23:51:04.819Z,92.70
2023-01-10T23:53:31.196Z,92.70
2023-01-10T23:55:57.574Z,92.80
2023-01-10T23:58:23.956Z,92.80
